Time;durP1;ratioP1;P1;durP2;ratioP2;P2;SDS_P1;SDS_P2;PMS_P1;PMS_P2;Temp;Humidity;BMP_temperature;BMP_pressure;BME280_temperature;BME280_humidity;BME280_pressure;Samples;Min_cycle;Max_cycle;Signal;HPM_P1;HPM_P2
2024/01/17 00:01:49;;;;;;;20.60;12.70;;;;;;;3.78;60.11;101031.34;5067356;28;20027;-73
2024/01/17 00:04:15;;;;;;;19.48;12.52;;;;;;;3.74;60.22;101038.59;5067507;28;20040;-76
2024/01/17 00:06:41;;;;;;;19.50;12.68;;;;;;;3.75;60.18;101035.00;5067402;28;20082;-75
2024/01/17 00:09:08;;;;;;;18.73;14.18;;;;;;;3.74;60.12;101043.03;5067284;28;20021;-73
2024/01/17 00:11:33;;;;;;;21.13;13.73;;;;;;;3.73;60.07;101044.81;5065670;28;20031;-74
2024/01/17 00:13:59;;;;;;;18.35;12.55;;;;;;;3.80;60.18;101040.97;5067522;28;20111;-74
2024/01/17 00:16:27;;;;;;;17.67;12.13;;;;;;;3.85;60.13;101040.75;5067279;28;20024;-73
2024/01/17 00:18:54;;;;;;;17.10;11.63;;;;;;;3.77;60.16;101042.91;5067405;28;20024;-74
2024/01/17 00:21:20;;;;;;;17.35;11.75;;;;;;;3.77;60.21;101033.13;5067365;28;20024;-75
2024/01/17 00:23:46;;;;;;;16.40;12.15;;;;;;;3.77;59.99;101018.94;5067480;28;20143;-75
2024/01/17 00:26:11;;;;;;;17.60;12.05;;;;;;;3.92;59.67;101052.81;5068012;28;20425;-73
2024/01/17 00:28:36;;;;;;;19.08;12.02;;;;;;;3.87;59.74;101041.53;5067537;28;20036;-73
2024/01/17 00:31:02;;;;;;;17.50;12.23;;;;;;;3.99;59.55;101035.63;5068128;28;20048;-75
2024/01/17 00:33:28;;;;;;;15.35;10.60;;;;;;;4.04;58.97;101036.25;5071379;28;20036;-74
2024/01/17 00:35:53;;;;;;;18.33;10.93;;;;;;;3.95;59.15;101026.06;5070466;28;20045;-76
2024/01/17 00:38:19;;;;;;;13.32;9.57;;;;;;;4.02;58.92;101027.50;5070583;28;20039;-75
2024/01/17 00:40:44;;;;;;;13.75;9.68;;;;;;;4.05;58.95;101030.00;5070986;28;20399;-75
2024/01/17 00:43:10;;;;;;;16.25;10.00;;;;;;;4.13;58.80;101032.28;5071008;28;20056;-74
2024/01/17 00:45:36;;;;;;;17.50;10.43;;;;;;;4.21;58.70;101022.16;5070627;28;20561;-75
2024/01/17 00:48:03;;;;;;;13.88;9.45;;;;;;;4.10;58.50;100990.72;5071039;28;20028;-74
2024/01/17 00:50:28;;;;;;;15.98;10.35;;;;;;;4.30;58.43;101009.25;5070801;28;20093;-75
2024/01/17 00:52:54;;;;;;;19.55;12.27;;;;;;;4.32;57.64;101007.38;5070609;28;20294;-73
2024/01/17 00:55:20;;;;;;;17.30;10.65;;;;;;;4.28;57.67;100984.47;5070410;28;20031;-73
2024/01/17 00:57:45;;;;;;;26.23;13.13;;;;;;;4.25;57.35;101000.63;5070794;28;20028;-74
2024/01/17 01:00:11;;;;;;;18.33;11.30;;;;;;;4.33;57.46;101008.22;5070622;28;20477;-75
2024/01/17 01:02:37;;;;;;;14.82;9.98;;;;;;;4.44;57.64;100999.69;5070303;28;20031;-75
2024/01/17 01:05:03;;;;;;;19.08;9.43;;;;;;;4.47;56.96;100999.53;5070374;28;20089;-75
2024/01/17 01:07:28;;;;;;;13.48;9.30;;;;;;;4.58;57.20;101002.53;5070441;28;20120;-74
2024/01/17 01:09:54;;;;;;;11.90;9.65;;;;;;;4.59;56.44;100985.59;5070564;28;20055;-74
2024/01/17 01:12:19;;;;;;;23.70;9.48;;;;;;;4.65;56.27;100987.94;5070564;28;20152;-74
2024/01/17 01:14:45;;;;;;;16.60;9.93;;;;;;;4.67;56.03;100984.28;5071071;28;20035;-74
2024/01/17 01:17:10;;;;;;;12.95;9.07;;;;;;;4.69;55.60;100974.41;5070160;28;20029;-73
2024/01/17 01:19:36;;;;;;;15.82;8.90;;;;;;;4.65;55.43;100961.31;5070351;28;20485;-73
2024/01/17 01:22:01;;;;;;;18.30;8.40;;;;;;;4.70;55.63;100970.81;5074644;28;20031;-74
2024/01/17 01:24:27;;;;;;;13.73;8.90;;;;;;;4.69;55.36;100963.75;5072496;28;20107;-75
2024/01/17 01:26:52;;;;;;;14.50;8.98;;;;;;;4.65;55.31;100946.19;5070417;28;20027;-75
2024/01/17 01:29:18;;;;;;;15.38;10.30;;;;;;;4.80;55.19;100965.88;5069706;28;20031;-75
2024/01/17 01:31:43;;;;;;;13.50;9.27;;;;;;;4.83;54.99;100963.06;5068421;28;20032;-75
2024/01/17 01:34:09;;;;;;;13.05;10.45;;;;;;;4.60;54.62;100958.91;5069567;28;20032;-75
2024/01/17 01:36:34;;;;;;;13.63;10.43;;;;;;;4.54;54.87;100942.38;5069818;28;20024;-75
2024/01/17 01:39:00;;;;;;;17.70;11.70;;;;;;;4.47;55.10;100914.31;5069398;28;20021;-75
2024/01/17 01:41:25;;;;;;;15.57;10.98;;;;;;;4.77;54.75;100950.06;5069719;28;20020;-75
2024/01/17 01:43:51;;;;;;;23.08;14.13;;;;;;;4.83;54.31;100966.53;5069577;28;20032;-73
2024/01/17 01:46:20;;;;;;;17.98;13.30;;;;;;;4.68;54.66;100946.03;5069550;28;20016;-73
2024/01/17 01:48:48;;;;;;;19.02;13.07;;;;;;;4.78;54.80;100951.75;5068714;28;20037;-75
2024/01/17 01:51:15;;;;;;;20.05;11.98;;;;;;;4.57;54.87;100927.09;5069330;28;20033;-73
2024/01/17 01:53:48;;;;;;;20.77;13.68;;;;;;;4.71;54.73;100951.19;5068097;28;20059;-73
2024/01/17 01:56:17;;;;;;;18.42;12.90;;;;;;;4.70;54.80;100959.28;5069624;28;20025;-76
2024/01/17 01:58:46;;;;;;;21.48;12.30;;;;;;;4.67;54.90;100954.13;5067358;28;20044;-76
2024/01/17 02:01:15;;;;;;;19.35;12.90;;;;;;;4.63;54.99;100958.75;5069479;28;20029;-73
2024/01/17 02:03:43;;;;;;;19.10;12.63;;;;;;;4.38;55.19;100916.53;5070126;28;20090;-73
2024/01/17 02:06:10;;;;;;;19.63;13.50;;;;;;;4.51;55.27;100945.19;5069419;28;20503;-74
2024/01/17 02:08:37;;;;;;;38.92;14.23;;;;;;;4.41;55.03;100928.81;5069906;28;20024;-74
2024/01/17 02:11:03;;;;;;;29.55;13.57;;;;;;;4.35;55.04;100911.34;5074954;28;20021;-74
2024/01/17 02:13:29;;;;;;;21.67;12.90;;;;;;;4.30;55.10;100913.41;5074154;28;20036;-73
2024/01/17 02:15:55;;;;;;;22.27;13.13;;;;;;;4.50;54.85;100952.31;5083470;28;20049;-74
2024/01/17 02:18:20;;;;;;;20.40;12.90;;;;;;;4.46;55.11;100957.88;5066811;28;20086;-75
2024/01/17 02:20:46;;;;;;;30.20;14.02;;;;;;;4.43;55.11;100960.72;5069029;28;20788;-75
2024/01/17 02:23:28;;;;;;;34.20;13.68;;;;;;;4.39;55.52;100949.34;5068808;28;20051;-77
2024/01/17 02:25:55;;;;;;;;;;;;;;;4.39;55.27;100954.66;5069458;28;20032;-75
2024/01/17 02:28:21;;;;;;;29.85;14.05;;;;;;;4.38;55.64;100945.81;5067606;28;19915;-74
2024/01/17 02:30:47;;;;;;;33.85;14.30;;;;;;;4.40;55.20;100933.28;5068927;28;20772;-73
2024/01/17 02:33:16;;;;;;;29.27;15.90;;;;;;;4.35;55.05;100943.31;5068697;28;20031;-74
2024/01/17 02:35:42;;;;;;;26.15;14.68;;;;;;;4.32;55.09;100958.56;5068783;28;20594;-77
2024/01/17 02:38:07;;;;;;;63.42;17.23;;;;;;;4.29;55.42;100956.06;5068772;28;20029;-74
2024/01/17 02:40:33;;;;;;;19.00;12.40;;;;;;;4.35;55.58;100958.41;5068832;28;20040;-73
2024/01/17 02:42:59;;;;;;;23.27;14.27;;;;;;;4.08;55.93;100925.19;5068582;28;20465;-75
2024/01/17 02:45:24;;;;;;;32.78;14.90;;;;;;;4.22;56.64;100950.19;5068797;28;20032;-74
2024/01/17 02:47:50;;;;;;;30.02;14.23;;;;;;;3.94;55.85;100914.41;5068488;28;20128;-74
2024/01/17 02:50:16;;;;;;;21.73;13.77;;;;;;;4.14;55.81;100960.38;5069017;28;20020;-74
2024/01/17 02:52:42;;;;;;;33.15;14.13;;;;;;;3.98;55.39;100954.06;5069365;28;20025;-74
2024/01/17 02:55:12;;;;;;;24.75;14.13;;;;;;;3.96;55.44;100936.47;5068832;28;20039;-73
2024/01/17 02:57:38;;;;;;;25.27;14.43;;;;;;;4.05;55.48;100955.50;5050824;28;20037;-74
2024/01/17 03:00:06;;;;;;;25.20;13.88;;;;;;;3.99;55.97;100944.28;5072907;28;20032;-78
2024/01/17 03:02:32;;;;;;;21.50;13.85;;;;;;;4.05;55.55;100950.19;5072664;28;20101;-75
2024/01/17 03:04:58;;;;;;;22.65;12.43;;;;;;;4.02;55.36;100947.66;5068370;28;20492;-75
2024/01/17 03:07:23;;;;;;;21.25;13.20;;;;;;;3.97;55.22;100936.41;5068381;28;20031;-73
2024/01/17 03:09:49;;;;;;;24.17;12.90;;;;;;;3.95;55.05;100927.59;5067962;28;20037;-75
2024/01/17 03:12:15;;;;;;;31.40;12.73;;;;;;;4.00;54.98;100938.91;5068015;28;20020;-73
2024/01/17 03:14:41;;;;;;;23.35;12.65;;;;;;;4.04;54.77;100936.94;5068045;28;20032;-74
2024/01/17 03:17:06;;;;;;;34.00;20.52;;;;;;;3.99;55.02;100945.16;5067851;28;20423;-74
2024/01/17 03:19:32;;;;;;;34.40;12.80;;;;;;;4.02;54.80;100939.69;5068440;28;20068;-75
2024/01/17 03:21:57;;;;;;;42.38;14.85;;;;;;;4.00;54.92;100941.56;5067682;28;20020;-74
2024/01/17 03:24:23;;;;;;;43.30;14.73;;;;;;;3.89;54.75;100927.91;5067745;28;20024;-73
2024/01/17 03:26:48;;;;;;;16.15;11.02;;;;;;;3.88;54.82;100935.97;5067882;28;20025;-74
2024/01/17 03:29:14;;;;;;;46.92;14.63;;;;;;;3.82;54.99;100937.97;5068141;28;20506;-75
2024/01/17 03:31:39;;;;;;;20.05;10.48;;;;;;;3.75;54.42;100935.72;5067807;28;20473;-74
2024/01/17 03:34:05;;;;;;;19.13;11.68;;;;;;;3.71;54.24;100934.13;5067775;28;20420;-74
2024/01/17 03:36:30;;;;;;;30.60;13.43;;;;;;;3.78;54.26;100938.22;5067935;28;20094;-74
2024/01/17 03:38:56;;;;;;;26.10;11.43;;;;;;;3.80;54.63;100939.00;5067986;28;20029;-75
2024/01/17 03:41:22;;;;;;;28.02;15.07;;;;;;;3.69;54.52;100933.34;5068059;28;20039;-74
2024/01/17 03:43:48;;;;;;;32.88;14.27;;;;;;;3.79;54.72;100947.94;5068438;28;20032;-74
2024/01/17 03:46:13;;;;;;;34.22;16.15;;;;;;;3.83;55.03;100949.50;5068289;28;20058;-74
2024/01/17 03:48:39;;;;;;;38.58;17.48;;;;;;;3.73;54.90;100925.13;5072545;28;20028;-74
2024/01/17 03:51:05;;;;;;;35.25;17.45;;;;;;;3.93;55.16;100952.56;5073301;28;20048;-74
2024/01/17 03:53:31;;;;;;;29.58;15.90;;;;;;;3.91;54.99;100935.84;5067728;28;20123;-76
2024/01/17 03:55:56;;;;;;;20.85;13.13;;;;;;;3.89;55.35;100922.59;5066275;28;20064;-74
2024/01/17 03:58:22;;;;;;;30.58;13.80;;;;;;;3.96;55.11;100937.31;5065069;28;20554;-75
2024/01/17 04:00:47;;;;;;;30.55;14.50;;;;;;;4.02;55.47;100954.78;5067346;28;20427;-74
2024/01/17 04:03:13;;;;;;;23.25;12.60;;;;;;;4.03;54.95;100953.84;5067704;28;20405;-76
2024/01/17 04:05:43;;;;;;;28.73;12.82;;;;;;;3.99;54.68;100949.59;5067551;28;20021;-77
2024/01/17 04:08:09;;;;;;;33.38;13.50;;;;;;;3.85;54.56;100926.34;5067289;28;20551;-74
2024/01/17 04:10:34;;;;;;;25.55;13.88;;;;;;;3.75;54.69;100925.94;5067109;28;20103;-74
2024/01/17 04:13:02;;;;;;;32.72;12.73;;;;;;;3.75;54.46;100946.34;5069563;28;20030;-76
2024/01/17 04:15:29;;;;;;;33.08;15.50;;;;;;;3.79;54.63;100970.06;5071559;28;20172;-74
2024/01/17 04:17:54;;;;;;;33.92;15.80;;;;;;;3.82;54.44;100972.56;5071706;28;20466;-75
2024/01/17 04:20:20;;;;;;;49.83;17.40;;;;;;;3.76;54.20;100974.69;5071502;28;20020;-74
2024/01/17 04:22:46;;;;;;;30.42;15.00;;;;;;;3.72;54.35;100978.41;5071168;28;20032;-76
2024/01/17 04:25:11;;;;;;;61.08;18.08;;;;;;;3.66;54.33;100968.06;5071477;28;20526;-74
2024/01/17 04:27:37;;;;;;;46.00;15.80;;;;;;;3.62;54.44;100971.81;5071101;28;20028;-75
2024/01/17 04:30:04;;;;;;;30.98;13.23;;;;;;;3.72;54.49;100984.59;5071867;28;20119;-75
2024/01/17 04:32:32;;;;;;;46.55;14.55;;;;;;;3.14;54.47;100892.56;5071837;28;20119;-76
2024/01/17 04:34:58;;;;;;;29.85;14.55;;;;;;;3.66;54.84;100974.25;5077726;28;20059;-76
2024/01/17 04:37:24;;;;;;;27.90;14.50;;;;;;;3.43;54.92;100944.34;5095504;28;20027;-77
2024/01/17 04:39:49;;;;;;;54.42;16.58;;;;;;;3.48;55.30;100953.00;5100970;28;20164;-76
2024/01/17 04:42:15;;;;;;;34.72;13.50;;;;;;;3.57;55.78;100973.81;5088357;28;20031;-73
2024/01/17 04:44:40;;;;;;;52.38;14.68;;;;;;;3.54;56.05;100974.84;5090187;28;20124;-73
2024/01/17 04:47:06;;;;;;;35.38;13.80;;;;;;;3.41;56.20;100947.09;5090593;28;20028;-73
2024/01/17 04:49:31;;;;;;;45.10;16.23;;;;;;;3.49;56.34;100973.31;5090006;28;20039;-73
2024/01/17 04:51:58;;;;;;;27.92;14.65;;;;;;;3.63;56.53;100978.84;5089350;28;20565;-74
2024/01/17 04:54:24;;;;;;;51.70;16.50;;;;;;;3.66;56.75;100990.22;5090358;28;20612;-75
2024/01/17 04:56:50;;;;;;;29.25;13.95;;;;;;;3.62;57.19;100971.81;5089284;28;20496;-73
2024/01/17 04:59:15;;;;;;;92.82;19.98;;;;;;;3.69;57.36;100981.22;5090779;28;20028;-75
2024/01/17 05:01:41;;;;;;;63.83;17.35;;;;;;;3.73;57.61;100988.13;5091469;28;20111;-76
2024/01/17 05:04:08;;;;;;;65.13;17.73;;;;;;;3.53;57.92;100950.97;5090705;28;20487;-75
2024/01/17 05:06:33;;;;;;;42.78;17.55;;;;;;;3.68;57.85;100990.13;5090564;28;20092;-75
2024/01/17 05:08:59;;;;;;;52.13;18.35;;;;;;;3.59;58.38;100977.25;5090537;28;20028;-75
2024/01/17 05:11:27;;;;;;;43.25;18.65;;;;;;;3.66;58.75;100994.66;5089935;28;20039;-78
2024/01/17 05:13:52;;;;;;;63.90;21.65;;;;;;;3.77;58.93;101005.66;5090613;28;20032;-75
2024/01/17 05:16:18;;;;;;;63.63;18.77;;;;;;;3.80;58.87;101013.50;5090470;28;20035;-76
2024/01/17 05:18:44;;;;;;;96.90;24.30;;;;;;;3.73;58.70;100996.13;5090457;28;20066;-76
2024/01/17 05:21:09;;;;;;;43.78;20.85;;;;;;;3.75;59.07;101010.19;5090820;28;20678;-78
2024/01/17 05:23:35;;;;;;;42.45;19.42;;;;;;;3.69;59.05;101015.81;5080352;28;20035;-77
2024/01/17 05:26:01;;;;;;;56.00;23.00;;;;;;;3.75;59.11;101012.84;5088140;28;20087;-76
2024/01/17 05:28:26;;;;;;;71.88;22.33;;;;;;;3.72;59.00;101016.53;5093801;28;20634;-73
2024/01/17 05:30:52;;;;;;;51.95;23.15;;;;;;;3.67;58.98;101015.03;5088912;28;20051;-78
2024/01/17 05:33:17;;;;;;;39.60;19.17;;;;;;;3.65;59.27;101008.88;5087361;28;20028;-76
2024/01/17 05:35:42;;;;;;;47.70;20.15;;;;;;;3.70;58.92;101020.19;5086988;28;20055;-74
2024/01/17 05:38:08;;;;;;;50.05;23.80;;;;;;;3.56;59.10;100998.69;5087263;28;20040;-76
2024/01/17 05:40:33;;;;;;;60.60;23.10;;;;;;;3.68;59.03;101025.56;5087071;28;20040;-80
2024/01/17 05:43:00;;;;;;;39.58;21.30;;;;;;;3.49;59.03;101007.88;5101940;28;20031;-74
2024/01/17 05:45:26;;;;;;;79.90;24.15;;;;;;;3.65;58.60;101041.69;5107104;28;20504;-76
2024/01/17 05:47:51;;;;;;;80.38;23.88;;;;;;;3.55;59.52;101027.06;5107665;28;20032;-75
2024/01/17 05:50:17;;;;;;;54.63;21.92;;;;;;;3.62;59.47;101025.00;5107540;28;20035;-76
2024/01/17 05:52:43;;;;;;;88.57;26.38;;;;;;;3.62;59.59;101028.50;5107351;28;20116;-76
2024/01/17 05:55:10;;;;;;;55.17;27.25;;;;;;;3.69;59.09;101034.41;5106837;28;20038;-74
2024/01/17 05:57:36;;;;;;;42.75;24.85;;;;;;;3.73;58.99;101049.31;5094008;28;20407;-73
2024/01/17 06:00:03;;;;;;;68.10;29.23;;;;;;;3.66;58.96;101037.22;5089886;28;20036;-73
2024/01/17 06:02:29;;;;;;;52.58;25.65;;;;;;;3.67;59.07;101046.94;5070191;28;20126;-76
2024/01/17 06:04:55;;;;;;;76.30;26.25;;;;;;;3.75;58.80;101055.41;5089762;28;20111;-75
2024/01/17 06:07:20;;;;;;;50.90;26.05;;;;;;;3.73;58.85;101054.63;5089381;28;20161;-73
2024/01/17 06:09:46;;;;;;;52.17;26.05;;;;;;;3.77;58.56;101050.88;5090129;28;20036;-75
2024/01/17 06:12:11;;;;;;;58.90;29.10;;;;;;;3.76;58.53;101052.66;5089389;28;20107;-74
2024/01/17 06:14:39;;;;;;;75.20;31.70;;;;;;;3.46;58.54;101031.94;5092418;28;20020;-77
2024/01/17 06:17:05;;;;;;;71.25;35.22;;;;;;;3.63;58.81;101071.94;5095891;28;20024;-74
2024/01/17 06:19:31;;;;;;;81.82;39.90;;;;;;;3.68;58.49;101069.91;5090615;28;20027;-75
2024/01/17 06:21:56;;;;;;;90.55;41.00;;;;;;;3.56;58.74;101074.00;5088804;28;20099;-74
2024/01/17 06:24:21;;;;;;;64.40;32.78;;;;;;;3.58;59.01;101076.59;5088684;28;20035;-73
2024/01/17 06:26:47;;;;;;;73.07;31.15;;;;;;;3.66;58.78;101074.47;5078222;28;20439;-74
2024/01/17 06:29:12;;;;;;;68.57;31.83;;;;;;;3.71;58.38;101069.78;5068556;28;20035;-74
2024/01/17 06:31:38;;;;;;;179.95;74.57;;;;;;;3.73;58.11;101070.59;5068571;28;20094;-74
2024/01/17 06:34:04;;;;;;;128.65;59.78;;;;;;;3.77;58.49;101086.31;5068331;28;20124;-75
2024/01/17 06:36:29;;;;;;;118.90;55.53;;;;;;;3.70;59.37;101066.25;5068290;28;20029;-73
2024/01/17 06:38:55;;;;;;;135.30;57.85;;;;;;;3.80;59.32;101077.34;5068259;28;20032;-76
2024/01/17 06:41:20;;;;;;;154.43;61.78;;;;;;;3.92;60.09;101082.09;5069148;28;20036;-73
2024/01/17 06:43:46;;;;;;;169.75;69.57;;;;;;;3.99;60.12;101080.88;5088392;28;20024;-71
2024/01/17 06:46:12;;;;;;;92.47;46.47;;;;;;;4.09;60.41;101090.16;5086123;28;20535;-72
2024/01/17 06:48:37;;;;;;;77.18;43.55;;;;;;;4.03;60.29;101047.88;5088665;28;20020;-73
2024/01/17 06:51:04;;;;;;;67.90;33.60;;;;;;;4.30;60.04;101083.81;5088381;28;20476;-76
2024/01/17 06:53:32;;;;;;;72.40;31.20;;;;;;;4.09;60.27;101031.59;5088715;28;20040;-74
2024/01/17 06:55:57;;;;;;;62.10;29.65;;;;;;;4.36;60.62;101072.84;5087127;28;20028;-73
2024/01/17 06:58:23;;;;;;;47.50;22.15;;;;;;;4.43;60.27;101056.56;5089722;28;20035;-76
2024/01/17 07:00:49;;;;;;;43.55;22.08;;;;;;;4.59;60.17;101065.50;5089279;28;20069;-74
2024/01/17 07:03:14;;;;;;;69.95;30.55;;;;;;;4.59;60.63;101046.88;5091474;28;20028;-78
2024/01/17 07:05:41;;;;;;;49.28;24.48;;;;;;;4.78;60.18;101074.31;5094197;28;20124;-73
2024/01/17 07:08:07;;;;;;;39.50;20.52;;;;;;;4.93;59.63;101073.53;5076361;28;20503;-75
2024/01/17 07:10:34;;;;;;;28.52;19.77;;;;;;;5.03;58.90;101085.47;5068052;28;20088;-72
2024/01/17 07:13:00;;;;;;;43.15;19.83;;;;;;;5.10;57.92;101076.22;5065117;28;20037;-74
2024/01/17 07:15:25;;;;;;;72.50;20.67;;;;;;;5.10;57.43;101052.22;5067472;28;20024;-74
2024/01/17 07:17:51;;;;;;;119.82;31.75;;;;;;;5.35;56.98;101081.97;5067723;28;20107;-75
2024/01/17 07:20:16;;;;;;;149.95;44.35;;;;;;;5.44;56.65;101078.81;5067685;28;20595;-75
2024/01/17 07:22:42;;;;;;;139.35;35.90;;;;;;;5.40;55.62;101063.94;5067495;28;20024;-74
2024/01/17 07:25:09;;;;;;;59.55;18.77;;;;;;;5.68;54.28;101083.81;5068699;28;20496;-77
2024/01/17 07:27:34;;;;;;;27.08;12.52;;;;;;;5.80;52.28;101077.81;5067474;28;20059;-73
2024/01/17 07:30:00;;;;;;;80.72;18.35;;;;;;;5.75;51.44;101040.69;5081980;28;20500;-73
2024/01/17 07:32:25;;;;;;;21.23;12.07;;;;;;;6.05;51.57;101062.19;5068322;28;20032;-73
2024/01/17 07:34:51;;;;;;;43.42;20.88;;;;;;;6.18;50.80;101060.53;5067559;28;20121;-75
2024/01/17 07:37:16;;;;;;;28.55;11.88;;;;;;;6.31;50.34;101058.91;5067346;28;20028;-74
2024/01/17 07:39:43;;;;;;;41.08;10.55;;;;;;;6.40;49.40;101057.50;5066173;28;20470;-75
2024/01/17 07:42:09;;;;;;;48.42;13.60;;;;;;;6.41;48.51;101045.88;5074963;28;20514;-74
2024/01/17 07:44:34;;;;;;;57.58;16.40;;;;;;;6.55;48.79;101056.63;5087729;28;20028;-74
2024/01/17 07:47:00;;;;;;;67.18;20.70;;;;;;;6.60;48.93;101057.25;5086967;28;20024;-75
2024/01/17 07:49:25;;;;;;;76.95;16.92;;;;;;;6.71;48.69;101061.94;5088296;28;20023;-74
2024/01/17 07:51:51;;;;;;;39.55;14.18;;;;;;;6.77;48.46;101058.91;5088182;28;20031;-75
2024/01/17 07:54:17;;;;;;;25.85;10.90;;;;;;;6.84;48.25;101065.63;5093899;28;20040;-75
2024/01/17 07:56:43;;;;;;;36.83;12.27;;;;;;;6.89;48.35;101060.88;5091515;28;20028;-74
2024/01/17 07:59:08;;;;;;;43.47;12.93;;;;;;;7.03;47.69;101064.44;5091318;28;20077;-74
2024/01/17 08:01:35;;;;;;;57.78;14.23;;;;;;;6.68;47.54;100987.28;5091703;28;20165;-75
2024/01/17 08:04:00;;;;;;;35.40;10.20;;;;;;;7.20;48.04;101055.41;5088084;28;20039;-74
2024/01/17 08:06:26;;;;;;;28.85;10.50;;;;;;;7.32;47.57;101051.97;5087789;28;20024;-75
2024/01/17 08:08:52;;;;;;;68.30;11.93;;;;;;;7.27;47.49;101026.47;5088132;28;20040;-74
2024/01/17 08:11:18;;;;;;;29.77;10.35;;;;;;;7.41;47.99;101048.75;5094361;28;20031;-74
2024/01/17 08:13:44;;;;;;;14.63;7.25;;;;;;;7.48;47.36;101058.13;5097455;28;20036;-74
2024/01/17 08:16:10;;;;;;;26.30;10.55;;;;;;;7.60;47.51;101052.00;5096263;28;20040;-75
2024/01/17 08:18:36;;;;;;;16.80;8.55;;;;;;;7.68;47.46;101057.72;5095583;28;20525;-75
2024/01/17 08:21:02;;;;;;;15.95;8.40;;;;;;;7.61;46.89;101024.25;5093137;28;20016;-74
2024/01/17 08:23:28;;;;;;;28.50;7.72;;;;;;;7.78;47.13;101041.09;5092405;28;20043;-74
2024/01/17 08:25:53;;;;;;;16.45;8.48;;;;;;;7.81;47.13;101024.84;5090773;28;20020;-75
2024/01/17 08:28:19;;;;;;;19.17;9.13;;;;;;;7.82;47.49;101032.78;5088641;28;20020;-75
2024/01/17 08:30:44;;;;;;;68.07;10.77;;;;;;;7.89;47.15;101035.94;5088311;28;20046;-73
2024/01/17 08:33:10;;;;;;;29.17;8.00;;;;;;;7.96;47.29;101035.44;5089281;28;20058;-73
2024/01/17 08:35:35;;;;;;;15.20;7.63;;;;;;;7.92;47.49;101011.63;5089295;28;20403;-74
2024/01/17 08:38:01;;;;;;;16.48;7.43;;;;;;;8.15;47.89;101029.75;5089762;28;20066;-74
2024/01/17 08:40:27;;;;;;;48.90;13.25;;;;;;;8.11;47.49;101002.28;5104842;28;20492;-74
2024/01/17 08:42:52;;;;;;;10.30;7.10;;;;;;;8.19;48.37;101018.72;5091295;28;20020;-75
2024/01/17 08:45:18;;;;;;;31.25;7.90;;;;;;;8.32;48.22;101026.00;5090353;28;20101;-75
2024/01/17 08:47:44;;;;;;;12.90;7.82;;;;;;;8.32;48.42;101029.53;5087133;28;20523;-75
2024/01/17 08:50:14;;;;;;;19.20;7.43;;;;;;;8.29;48.39;101037.78;5087296;28;20484;-75
2024/01/17 08:52:39;;;;;;;29.52;8.48;;;;;;;8.37;49.07;101027.44;5087331;28;20380;-73
2024/01/17 08:55:08;;;;;;;19.25;9.32;;;;;;;8.17;49.05;100990.31;5087239;28;20107;-74
2024/01/17 08:57:37;;;;;;;30.83;11.63;;;;;;;8.41;49.84;101020.88;5086962;28;20075;-76
2024/01/17 09:00:05;;;;;;;31.08;9.85;;;;;;;8.54;50.23;101015.56;5090717;28;20020;-76
2024/01/17 09:02:31;;;;;;;28.23;9.55;;;;;;;8.42;50.74;101006.53;5090633;28;20115;-73
2024/01/17 09:04:57;;;;;;;14.05;7.40;;;;;;;8.38;51.87;101006.84;5090758;28;20024;-76
2024/01/17 09:07:23;;;;;;;26.50;9.30;;;;;;;8.33;52.30;100985.69;5090794;28;20016;-73
2024/01/17 09:09:48;;;;;;;14.45;7.53;;;;;;;8.31;52.92;101005.53;5090671;28;20475;-74
2024/01/17 09:12:17;;;;;;;16.38;7.47;;;;;;;8.37;53.65;100992.59;5090989;28;20447;-75
2024/01/17 09:14:43;;;;;;;16.00;8.18;;;;;;;8.35;53.78;101002.53;5090983;28;20035;-72
2024/01/17 09:17:09;;;;;;;15.25;8.40;;;;;;;8.29;54.16;100981.50;5090646;28;20081;-75
2024/01/17 09:19:35;;;;;;;16.40;8.32;;;;;;;8.39;54.57;100996.00;5090509;28;20079;-73
2024/01/17 09:22:00;;;;;;;12.20;7.50;;;;;;;8.32;55.74;100996.53;5090676;28;20051;-75
2024/01/17 09:24:26;;;;;;;12.73;7.00;;;;;;;8.38;56.04;100996.13;5091108;28;20036;-75
2024/01/17 09:26:52;;;;;;;38.33;8.25;;;;;;;8.42;56.12;100979.72;5091361;28;20120;-75
2024/01/17 09:29:18;;;;;;;12.20;7.45;;;;;;;8.34;55.96;100955.28;5090656;28;20156;-74
2024/01/17 09:31:44;;;;;;;24.88;7.10;;;;;;;8.54;56.58;100978.91;5089065;28;20027;-75
2024/01/17 09:34:09;;;;;;;25.70;6.60;;;;;;;8.58;56.65;100974.19;5089924;28;20036;-74
2024/01/17 09:36:35;;;;;;;18.95;6.68;;;;;;;8.59;56.88;100976.75;5090453;28;20024;-72
2024/01/17 09:39:00;;;;;;;17.60;5.97;;;;;;;8.48;57.66;100959.69;5090283;28;20111;-75
2024/01/17 09:41:26;;;;;;;15.02;5.65;;;;;;;8.48;57.51;100984.69;5090380;28;20024;-75
2024/01/17 09:43:53;;;;;;;10.65;5.63;;;;;;;8.53;57.90;100965.63;5090015;28;20115;-74
2024/01/17 09:46:18;;;;;;;13.68;8.27;;;;;;;8.47;58.02;100939.22;5089971;28;20028;-75
2024/01/17 09:48:45;;;;;;;32.80;6.93;;;;;;;8.80;58.30;100955.69;5089936;28;20039;-75
2024/01/17 09:51:16;;;;;;;15.38;6.03;;;;;;;8.72;58.40;100949.97;5090213;28;20380;-73
2024/01/17 09:53:45;;;;;;;24.25;6.22;;;;;;;8.52;58.88;100937.94;5090096;28;20032;-75
2024/01/17 09:56:12;;;;;;;22.30;6.43;;;;;;;8.59;59.93;100938.41;5089695;28;20103;-72
2024/01/17 09:58:42;;;;;;;18.33;6.25;;;;;;;8.53;59.90;100934.28;5089894;28;20042;-73
2024/01/17 10:01:09;;;;;;;20.38;7.10;;;;;;;8.49;60.91;100927.44;5089993;28;20059;-77
2024/01/17 10:03:37;;;;;;;11.60;6.88;;;;;;;8.60;60.56;100935.59;5087045;28;20032;-75
2024/01/17 10:06:03;;;;;;;22.55;6.03;;;;;;;8.40;61.28;100925.38;5089912;28;20119;-75
2024/01/17 10:08:30;;;;;;;16.05;6.85;;;;;;;8.53;61.40;100896.75;5088259;28;20123;-76
2024/01/17 10:10:56;;;;;;;14.27;6.95;;;;;;;8.86;61.04;100908.81;5088944;28;20040;-75
2024/01/17 10:13:22;;;;;;;15.20;5.72;;;;;;;9.02;61.22;100912.97;5088596;28;20074;-73
2024/01/17 10:15:47;;;;;;;15.45;5.97;;;;;;;8.93;61.14;100900.22;5090986;28;20028;-76
2024/01/17 10:18:13;;;;;;;26.42;7.38;;;;;;;9.00;61.32;100898.81;5089759;28;20036;-76
2024/01/17 10:20:39;;;;;;;22.92;7.93;;;;;;;9.04;61.14;100859.22;5090288;28;20028;-75
2024/01/17 10:23:08;;;;;;;18.35;7.20;;;;;;;8.99;60.97;100890.91;5092053;28;20080;-73
2024/01/17 10:25:42;;;;;;;20.77;7.18;;;;;;;9.15;61.40;100886.13;5089360;28;20024;-78
2024/01/17 10:28:08;;;;;;;23.48;9.77;;;;;;;9.24;60.92;100878.28;5088546;28;20135;-76
2024/01/17 10:30:39;;;;;;;41.60;11.77;;;;;;;9.19;60.58;100874.22;5089319;28;20123;-78
2024/01/17 10:33:08;;;;;;;28.30;8.73;;;;;;;9.39;60.44;100859.38;5088758;28;20043;-75
2024/01/17 10:35:34;;;;;;;20.77;7.60;;;;;;;9.43;60.70;100866.22;5088474;28;20036;-77
2024/01/17 10:38:00;;;;;;;11.63;6.60;;;;;;;9.34;61.11;100848.97;5088702;28;20028;-76
2024/01/17 10:40:25;;;;;;;12.73;7.72;;;;;;;9.45;61.27;100858.94;5088700;28;20028;-75
2024/01/17 10:43:10;;;;;;;16.08;7.78;;;;;;;9.50;61.99;100852.25;5088460;28;20077;-76
2024/01/17 10:45:39;;;;;;;15.52;7.97;;;;;;;9.34;61.30;100818.56;5087363;28;20039;-77
2024/01/17 10:48:05;;;;;;;17.45;7.60;;;;;;;9.49;61.49;100845.16;5088664;28;20035;-75
2024/01/17 10:50:31;;;;;;;27.80;8.10;;;;;;;9.42;61.51;100833.13;5088238;28;20052;-76
2024/01/17 10:53:05;;;;;;;16.77;6.10;;;;;;;9.46;61.36;100828.41;5088677;28;20404;-75
2024/01/17 10:55:34;;;;;;;8.10;6.07;;;;;;;9.51;61.22;100832.47;5088416;28;20028;-75
2024/01/17 10:58:03;;;;;;;12.77;6.20;;;;;;;9.52;61.17;100838.69;5088545;28;20100;-76
2024/01/17 11:00:31;;;;;;;24.20;6.32;;;;;;;9.27;60.87;100831.59;5087603;28;20471;-75
2024/01/17 11:03:02;;;;;;;49.72;7.55;;;;;;;9.43;61.76;100836.69;5088879;28;20021;-75
2024/01/17 11:05:32;;;;;;;7.13;4.50;;;;;;;9.52;61.38;100823.44;5088858;28;20053;-76
2024/01/17 11:07:59;;;;;;;23.98;6.60;;;;;;;9.66;61.26;100812.53;5090972;28;20152;-76
2024/01/17 11:10:25;;;;;;;8.70;5.70;;;;;;;9.55;61.08;100808.94;5095514;28;20564;-75
2024/01/17 11:12:52;;;;;;;8.80;4.60;;;;;;;9.68;61.32;100812.44;5089961;28;20059;-79
2024/01/17 11:15:18;;;;;;;17.73;6.43;;;;;;;9.59;61.64;100795.19;5088355;28;20486;-74